sensor_id;sensor_type;location;lat;lon;timestamp;temperature;humidity
24326;DHT22;12448;45.532;5.290;2023-08-30T00:00:20;16.00;91.90
24326;DHT22;12448;45.532;5.290;2023-08-30T00:02:47;16.00;91.80
24326;DHT22;12448;45.532;5.290;2023-08-30T00:05:13;16.00;91.70
24326;DHT22;12448;45.532;5.290;2023-08-30T00:07:39;16.10;92.00
24326;DHT22;12448;45.532;5.290;2023-08-30T00:10:08;16.10;91.60
24326;DHT22;12448;45.532;5.290;2023-08-30T00:12:37;16.20;91.60
24326;DHT22;12448;45.532;5.290;2023-08-30T00:15:02;16.20;91.60
24326;DHT22;12448;45.532;5.290;2023-08-30T00:17:28;16.10;91.40
24326;DHT22;12448;45.532;5.290;2023-08-30T00:19:58;16.10;91.40
24326;DHT22;12448;45.532;5.290;2023-08-30T00:22:34;16.10;91.40
24326;DHT22;12448;45.532;5.290;2023-08-30T00:25:00;16.00;91.40
24326;DHT22;12448;45.532;5.290;2023-08-30T00:27:25;16.00;91.50
24326;DHT22;12448;45.532;5.290;2023-08-30T00:29:51;16.30;91.60
24326;DHT22;12448;45.532;5.290;2023-08-30T00:32:20;16.10;91.60
24326;DHT22;12448;45.532;5.290;2023-08-30T00:34:55;16.10;91.60
24326;DHT22;12448;45.532;5.290;2023-08-30T00:37:33;16.20;91.70
24326;DHT22;12448;45.532;5.290;2023-08-30T00:39:58;16.10;91.70
24326;DHT22;12448;45.532;5.290;2023-08-30T00:42:25;16.20;91.80
24326;DHT22;12448;45.532;5.290;2023-08-30T00:45:01;16.40;91.80
24326;DHT22;12448;45.532;5.290;2023-08-30T00:47:47;16.20;91.70
24326;DHT22;12448;45.532;5.290;2023-08-30T00:50:19;16.10;91.70
24326;DHT22;12448;45.532;5.290;2023-08-30T00:52:45;16.10;91.70
24326;DHT22;12448;45.532;5.290;2023-08-30T00:55:11;16.10;91.70
24326;DHT22;12448;45.532;5.290;2023-08-30T00:57:37;16.10;91.70
24326;DHT22;12448;45.532;5.290;2023-08-30T01:00:02;16.00;91.60
24326;DHT22;12448;45.532;5.290;2023-08-30T01:02:31;16.00;91.60
24326;DHT22;12448;45.532;5.290;2023-08-30T01:04:56;15.90;91.40
24326;DHT22;12448;45.532;5.290;2023-08-30T01:10:10;15.80;91.70
24326;DHT22;12448;45.532;5.290;2023-08-30T01:12:47;15.80;91.80
24326;DHT22;12448;45.532;5.290;2023-08-30T01:15:25;15.80;92.00
24326;DHT22;12448;45.532;5.290;2023-08-30T01:17:52;15.90;92.10
24326;DHT22;12448;45.532;5.290;2023-08-30T01:20:26;15.90;92.10
24326;DHT22;12448;45.532;5.290;2023-08-30T01:23:22;15.90;92.00
24326;DHT22;12448;45.532;5.290;2023-08-30T01:26:25;15.90;91.90
24326;DHT22;12448;45.532;5.290;2023-08-30T01:29:01;15.90;92.00
24326;DHT22;12448;45.532;5.290;2023-08-30T01:31:38;15.80;92.00
24326;DHT22;12448;45.532;5.290;2023-08-30T01:34:18;15.80;92.10
24326;DHT22;12448;45.532;5.290;2023-08-30T01:36:44;15.80;92.20
24326;DHT22;12448;45.532;5.290;2023-08-30T01:39:13;15.90;92.20
24326;DHT22;12448;45.532;5.290;2023-08-30T01:42:31;15.80;92.10
24326;DHT22;12448;45.532;5.290;2023-08-30T01:45:40;15.80;92.40
24326;DHT22;12448;45.532;5.290;2023-08-30T01:48:36;15.80;92.10
24326;DHT22;12448;45.532;5.290;2023-08-30T01:51:11;15.70;92.10
24326;DHT22;12448;45.532;5.290;2023-08-30T01:53:37;16.10;92.20
24326;DHT22;12448;45.532;5.290;2023-08-30T01:56:16;15.60;92.00
24326;DHT22;12448;45.532;5.290;2023-08-30T01:58:42;15.60;92.10
24326;DHT22;12448;45.532;5.290;2023-08-30T02:01:08;15.60;92.20
24326;DHT22;12448;45.532;5.290;2023-08-30T02:03:34;15.50;92.10
24326;DHT22;12448;45.532;5.290;2023-08-30T02:09:26;15.30;92.30
24326;DHT22;12448;45.532;5.290;2023-08-30T02:11:51;15.20;92.40
24326;DHT22;12448;45.532;5.290;2023-08-30T02:14:19;15.10;92.60
24326;DHT22;12448;45.532;5.290;2023-08-30T02:16:46;14.90;92.80
24326;DHT22;12448;45.532;5.290;2023-08-30T02:19:12;14.80;92.90
24326;DHT22;12448;45.532;5.290;2023-08-30T02:21:43;15.10;93.30
24326;DHT22;12448;45.532;5.290;2023-08-30T02:24:18;14.80;93.50
24326;DHT22;12448;45.532;5.290;2023-08-30T02:26:44;14.70;93.70
24326;DHT22;12448;45.532;5.290;2023-08-30T02:29:09;14.60;93.90
24326;DHT22;12448;45.532;5.290;2023-08-30T02:31:44;14.60;94.10
24326;DHT22;12448;45.532;5.290;2023-08-30T02:34:10;14.50;94.30
24326;DHT22;12448;45.532;5.290;2023-08-30T02:36:36;14.40;94.50
24326;DHT22;12448;45.532;5.290;2023-08-30T02:39:02;14.40;94.80
24326;DHT22;12448;45.532;5.290;2023-08-30T02:41:29;14.40;95.00
24326;DHT22;12448;45.532;5.290;2023-08-30T02:43:54;14.30;95.20
24326;DHT22;12448;45.532;5.290;2023-08-30T02:46:20;14.30;95.40
24326;DHT22;12448;45.532;5.290;2023-08-30T02:48:46;14.30;95.40
24326;DHT22;12448;45.532;5.290;2023-08-30T02:51:11;14.40;95.40
24326;DHT22;12448;45.532;5.290;2023-08-30T02:53:37;14.40;95.30
24326;DHT22;12448;45.532;5.290;2023-08-30T02:56:03;14.40;95.30
24326;DHT22;12448;45.532;5.290;2023-08-30T02:58:28;14.50;95.30
24326;DHT22;12448;45.532;5.290;2023-08-30T03:00:54;14.50;95.30
24326;DHT22;12448;45.532;5.290;2023-08-30T03:03:20;14.50;95.30
24326;DHT22;12448;45.532;5.290;2023-08-30T03:05:45;14.50;95.30
24326;DHT22;12448;45.532;5.290;2023-08-30T03:08:11;14.50;95.30
24326;DHT22;12448;45.532;5.290;2023-08-30T03:10:37;14.60;95.30
24326;DHT22;12448;45.532;5.290;2023-08-30T03:13:02;14.60;95.20
24326;DHT22;12448;45.532;5.290;2023-08-30T03:15:31;14.70;95.10
24326;DHT22;12448;45.532;5.290;2023-08-30T03:17:57;15.10;95.10
24326;DHT22;12448;45.532;5.290;2023-08-30T03:20:23;14.90;94.90
24326;DHT22;12448;45.532;5.290;2023-08-30T03:22:48;15.00;94.70
24326;DHT22;12448;45.532;5.290;2023-08-30T03:25:14;15.00;94.50
24326;DHT22;12448;45.532;5.290;2023-08-30T03:27:39;15.00;94.30
24326;DHT22;12448;45.532;5.290;2023-08-30T03:30:05;15.10;94.20
24326;DHT22;12448;45.532;5.290;2023-08-30T03:32:32;15.10;94.10
24326;DHT22;12448;45.532;5.290;2023-08-30T03:34:58;15.10;94.00
24326;DHT22;12448;45.532;5.290;2023-08-30T03:37:23;15.20;94.00
24326;DHT22;12448;45.532;5.290;2023-08-30T03:39:49;15.50;94.00
24326;DHT22;12448;45.532;5.290;2023-08-30T03:42:14;15.20;93.80
24326;DHT22;12448;45.532;5.290;2023-08-30T03:44:40;15.30;93.80
24326;DHT22;12448;45.532;5.290;2023-08-30T03:47:06;15.20;93.80
24326;DHT22;12448;45.532;5.290;2023-08-30T03:49:31;15.20;93.80
24326;DHT22;12448;45.532;5.290;2023-08-30T03:51:57;15.40;93.90
24326;DHT22;12448;45.532;5.290;2023-08-30T03:54:22;15.20;93.70
24326;DHT22;12448;45.532;5.290;2023-08-30T03:56:48;15.20;93.80
24326;DHT22;12448;45.532;5.290;2023-08-30T03:59:14;15.20;93.80
24326;DHT22;12448;45.532;5.290;2023-08-30T04:01:40;15.20;93.80
24326;DHT22;12448;45.532;5.290;2023-08-30T04:04:05;15.20;93.80
24326;DHT22;12448;45.532;5.290;2023-08-30T04:06:31;15.20;93.80
24326;DHT22;12448;45.532;5.290;2023-08-30T04:08:57;15.20;93.80
24326;DHT22;12448;45.532;5.290;2023-08-30T04:11:22;15.20;93.80
24326;DHT22;12448;45.532;5.290;2023-08-30T04:13:48;15.20;93.80
24326;DHT22;12448;45.532;5.290;2023-08-30T04:16:14;15.20;93.70
24326;DHT22;12448;45.532;5.290;2023-08-30T04:18:39;15.40;93.80
24326;DHT22;12448;45.532;5.290;2023-08-30T04:21:05;15.20;93.70
24326;DHT22;12448;45.532;5.290;2023-08-30T04:23:34;15.20;93.70
24326;DHT22;12448;45.532;5.290;2023-08-30T04:26:00;15.20;93.70
24326;DHT22;12448;45.532;5.290;2023-08-30T04:28:26;15.20;93.70
24326;DHT22;12448;45.532;5.290;2023-08-30T04:30:55;15.20;93.70
24326;DHT22;12448;45.532;5.290;2023-08-30T04:33:22;15.00;93.70
24326;DHT22;12448;45.532;5.290;2023-08-30T04:35:54;14.90;93.90
24326;DHT22;12448;45.532;5.290;2023-08-30T04:38:20;14.70;94.10
24326;DHT22;12448;45.532;5.290;2023-08-30T04:40:47;14.70;94.40
24326;DHT22;12448;45.532;5.290;2023-08-30T04:43:13;14.80;94.60
24326;DHT22;12448;45.532;5.290;2023-08-30T04:45:38;14.70;94.70
24326;DHT22;12448;45.532;5.290;2023-08-30T04:48:04;14.80;94.80
24326;DHT22;12448;45.532;5.290;2023-08-30T04:50:31;14.70;94.80
24326;DHT22;12448;45.532;5.290;2023-08-30T04:52:56;15.00;94.90
24326;DHT22;12448;45.532;5.290;2023-08-30T04:55:28;14.70;94.80
24326;DHT22;12448;45.532;5.290;2023-08-30T04:57:53;14.90;94.80
24326;DHT22;12448;45.532;5.290;2023-08-30T05:00:19;14.90;94.80
24326;DHT22;12448;45.532;5.290;2023-08-30T05:02:45;14.90;94.80
24326;DHT22;12448;45.532;5.290;2023-08-30T05:05:12;15.00;94.80
24326;DHT22;12448;45.532;5.290;2023-08-30T05:07:38;15.00;94.70
24326;DHT22;12448;45.532;5.290;2023-08-30T05:10:04;15.10;94.70
24326;DHT22;12448;45.532;5.290;2023-08-30T05:12:30;15.10;94.60
24326;DHT22;12448;45.532;5.290;2023-08-30T05:14:55;15.00;94.60
24326;DHT22;12448;45.532;5.290;2023-08-30T05:17:21;15.00;94.80
24326;DHT22;12448;45.532;5.290;2023-08-30T05:19:46;15.00;94.80
24326;DHT22;12448;45.532;5.290;2023-08-30T05:22:12;15.00;94.80
24326;DHT22;12448;45.532;5.290;2023-08-30T05:24:38;15.00;94.80
24326;DHT22;12448;45.532;5.290;2023-08-30T05:27:03;14.90;95.00
24326;DHT22;12448;45.532;5.290;2023-08-30T05:29:29;14.90;95.20
24326;DHT22;12448;45.532;5.290;2023-08-30T05:31:55;14.80;95.50
24326;DHT22;12448;45.532;5.290;2023-08-30T05:34:20;14.70;95.70
24326;DHT22;12448;45.532;5.290;2023-08-30T05:36:46;14.80;95.90
24326;DHT22;12448;45.532;5.290;2023-08-30T05:39:11;14.80;96.10
24326;DHT22;12448;45.532;5.290;2023-08-30T05:41:37;14.70;96.20
24326;DHT22;12448;45.532;5.290;2023-08-30T05:44:03;14.70;96.40
24326;DHT22;12448;45.532;5.290;2023-08-30T05:46:29;14.70;96.50
24326;DHT22;12448;45.532;5.290;2023-08-30T05:48:54;14.70;96.80
24326;DHT22;12448;45.532;5.290;2023-08-30T05:51:26;14.70;96.90
24326;DHT22;12448;45.532;5.290;2023-08-30T05:53:52;14.70;97.10
24326;DHT22;12448;45.532;5.290;2023-08-30T05:56:18;14.60;97.30
24326;DHT22;12448;45.532;5.290;2023-08-30T05:58:43;14.60;97.50
24326;DHT22;12448;45.532;5.290;2023-08-30T06:01:13;14.60;97.70
24326;DHT22;12448;45.532;5.290;2023-08-30T06:03:39;14.70;97.70
24326;DHT22;12448;45.532;5.290;2023-08-30T06:06:08;14.70;97.70
24326;DHT22;12448;45.532;5.290;2023-08-30T06:08:33;14.80;97.70
24326;DHT22;12448;45.532;5.290;2023-08-30T06:10:59;14.90;97.70
24326;DHT22;12448;45.532;5.290;2023-08-30T06:13:25;15.00;97.70
24326;DHT22;12448;45.532;5.290;2023-08-30T06:15:59;14.90;97.70
24326;DHT22;12448;45.532;5.290;2023-08-30T06:18:31;15.00;97.70
24326;DHT22;12448;45.532;5.290;2023-08-30T06:21:00;14.90;97.80
24326;DHT22;12448;45.532;5.290;2023-08-30T06:23:26;14.90;98.00
24326;DHT22;12448;45.532;5.290;2023-08-30T06:26:06;14.90;98.00
24326;DHT22;12448;45.532;5.290;2023-08-30T06:28:32;14.80;98.20
24326;DHT22;12448;45.532;5.290;2023-08-30T06:30:58;14.70;98.40
24326;DHT22;12448;45.532;5.290;2023-08-30T06:33:23;14.70;98.60
24326;DHT22;12448;45.532;5.290;2023-08-30T06:35:50;14.70;98.60
24326;DHT22;12448;45.532;5.290;2023-08-30T06:38:19;14.70;98.70
24326;DHT22;12448;45.532;5.290;2023-08-30T06:40:48;14.80;98.80
24326;DHT22;12448;45.532;5.290;2023-08-30T06:43:14;14.80;98.70
24326;DHT22;12448;45.532;5.290;2023-08-30T06:45:41;14.80;98.60
24326;DHT22;12448;45.532;5.290;2023-08-30T06:48:07;14.80;98.60
24326;DHT22;12448;45.532;5.290;2023-08-30T06:50:33;14.80;98.60
24326;DHT22;12448;45.532;5.290;2023-08-30T06:52:59;14.80;98.70
24326;DHT22;12448;45.532;5.290;2023-08-30T06:55:25;14.80;98.70
24326;DHT22;12448;45.532;5.290;2023-08-30T06:57:57;14.80;98.80
24326;DHT22;12448;45.532;5.290;2023-08-30T07:00:22;14.80;98.90
24326;DHT22;12448;45.532;5.290;2023-08-30T07:02:48;14.80;98.80
24326;DHT22;12448;45.532;5.290;2023-08-30T07:05:20;14.90;98.90
24326;DHT22;12448;45.532;5.290;2023-08-30T07:07:50;14.90;98.80
24326;DHT22;12448;45.532;5.290;2023-08-30T07:10:16;15.00;98.80
24326;DHT22;12448;45.532;5.290;2023-08-30T07:12:42;15.00;98.70
24326;DHT22;12448;45.532;5.290;2023-08-30T07:15:08;15.30;98.90
24326;DHT22;12448;45.532;5.290;2023-08-30T07:17:34;15.10;98.70
24326;DHT22;12448;45.532;5.290;2023-08-30T07:19:59;15.10;98.70
24326;DHT22;12448;45.532;5.290;2023-08-30T07:22:26;15.10;98.60
24326;DHT22;12448;45.532;5.290;2023-08-30T07:24:52;15.20;98.60
24326;DHT22;12448;45.532;5.290;2023-08-30T07:27:20;15.20;98.50
24326;DHT22;12448;45.532;5.290;2023-08-30T07:29:46;15.20;98.40
24326;DHT22;12448;45.532;5.290;2023-08-30T07:32:12;15.20;98.40
24326;DHT22;12448;45.532;5.290;2023-08-30T07:34:38;15.20;98.40
24326;DHT22;12448;45.532;5.290;2023-08-30T07:37:20;15.20;98.50
24326;DHT22;12448;45.532;5.290;2023-08-30T07:39:55;15.30;98.50
24326;DHT22;12448;45.532;5.290;2023-08-30T07:42:41;15.30;98.20
24326;DHT22;12448;45.532;5.290;2023-08-30T07:45:10;15.40;98.20
24326;DHT22;12448;45.532;5.290;2023-08-30T07:47:56;15.40;98.00
24326;DHT22;12448;45.532;5.290;2023-08-30T07:50:22;15.50;97.90
24326;DHT22;12448;45.532;5.290;2023-08-30T07:52:47;15.50;97.70
24326;DHT22;12448;45.532;5.290;2023-08-30T07:55:14;15.60;97.50
24326;DHT22;12448;45.532;5.290;2023-08-30T07:57:40;15.60;97.30
24326;DHT22;12448;45.532;5.290;2023-08-30T08:00:09;15.50;97.10
24326;DHT22;12448;45.532;5.290;2023-08-30T08:02:42;15.70;97.20
24326;DHT22;12448;45.532;5.290;2023-08-30T08:05:17;15.90;97.30
24326;DHT22;12448;45.532;5.290;2023-08-30T08:07:43;16.00;96.90
24326;DHT22;12448;45.532;5.290;2023-08-30T08:10:09;16.10;96.70
24326;DHT22;12448;45.532;5.290;2023-08-30T08:12:35;16.20;96.60
24326;DHT22;12448;45.532;5.290;2023-08-30T08:15:01;16.50;96.10
24326;DHT22;12448;45.532;5.290;2023-08-30T08:17:27;16.30;95.70
24326;DHT22;12448;45.532;5.290;2023-08-30T08:19:53;16.30;95.70
24326;DHT22;12448;45.532;5.290;2023-08-30T08:22:18;16.30;95.40
24326;DHT22;12448;45.532;5.290;2023-08-30T08:24:44;16.30;95.30
24326;DHT22;12448;45.532;5.290;2023-08-30T08:27:11;16.10;95.40
24326;DHT22;12448;45.532;5.290;2023-08-30T08:29:40;16.30;95.40
24326;DHT22;12448;45.532;5.290;2023-08-30T08:32:11;16.40;95.40
24326;DHT22;12448;45.532;5.290;2023-08-30T08:34:41;16.50;95.30
24326;DHT22;12448;45.532;5.290;2023-08-30T08:37:07;16.50;95.30
24326;DHT22;12448;45.532;5.290;2023-08-30T08:39:35;16.50;94.80
24326;DHT22;12448;45.532;5.290;2023-08-30T08:42:01;16.50;94.90
24326;DHT22;12448;45.532;5.290;2023-08-30T08:44:31;16.40;95.00
24326;DHT22;12448;45.532;5.290;2023-08-30T08:46:58;16.40;94.70
24326;DHT22;12448;45.532;5.290;2023-08-30T08:49:25;16.50;95.00
24326;DHT22;12448;45.532;5.290;2023-08-30T08:51:54;16.60;95.00
24326;DHT22;12448;45.532;5.290;2023-08-30T08:54:21;16.60;94.60
24326;DHT22;12448;45.532;5.290;2023-08-30T08:56:51;16.50;94.30
24326;DHT22;12448;45.532;5.290;2023-08-30T08:59:19;16.50;94.40
24326;DHT22;12448;45.532;5.290;2023-08-30T09:01:46;16.50;94.40
24326;DHT22;12448;45.532;5.290;2023-08-30T09:04:12;16.50;94.40
24326;DHT22;12448;45.532;5.290;2023-08-30T09:06:39;16.50;94.30
24326;DHT22;12448;45.532;5.290;2023-08-30T09:09:09;16.60;94.30
24326;DHT22;12448;45.532;5.290;2023-08-30T09:11:34;16.60;94.40
24326;DHT22;12448;45.532;5.290;2023-08-30T09:14:00;16.70;94.50
24326;DHT22;12448;45.532;5.290;2023-08-30T09:16:27;16.80;94.30
24326;DHT22;12448;45.532;5.290;2023-08-30T09:19:05;16.90;94.30
24326;DHT22;12448;45.532;5.290;2023-08-30T09:21:32;17.00;94.20
24326;DHT22;12448;45.532;5.290;2023-08-30T09:24:06;17.10;94.30
24326;DHT22;12448;45.532;5.290;2023-08-30T09:26:35;17.20;93.40
24326;DHT22;12448;45.532;5.290;2023-08-30T09:29:06;17.20;93.30
24326;DHT22;12448;45.532;5.290;2023-08-30T09:31:36;17.20;93.40
24326;DHT22;12448;45.532;5.290;2023-08-30T09:34:03;17.20;93.30
24326;DHT22;12448;45.532;5.290;2023-08-30T09:36:36;17.40;93.20
24326;DHT22;12448;45.532;5.290;2023-08-30T09:39:07;17.50;92.70
24326;DHT22;12448;45.532;5.290;2023-08-30T09:41:45;17.40;92.00
24326;DHT22;12448;45.532;5.290;2023-08-30T09:44:12;17.40;92.40
24326;DHT22;12448;45.532;5.290;2023-08-30T09:46:46;17.40;92.40
24326;DHT22;12448;45.532;5.290;2023-08-30T09:49:13;17.40;92.30
24326;DHT22;12448;45.532;5.290;2023-08-30T09:51:42;17.40;92.30
24326;DHT22;12448;45.532;5.290;2023-08-30T09:54:37;17.50;92.20
24326;DHT22;12448;45.532;5.290;2023-08-30T09:57:07;17.50;91.90
24326;DHT22;12448;45.532;5.290;2023-08-30T09:59:33;17.40;92.10
24326;DHT22;12448;45.532;5.290;2023-08-30T10:01:59;17.50;92.30
24326;DHT22;12448;45.532;5.290;2023-08-30T10:04:52;17.50;91.80
24326;DHT22;12448;45.532;5.290;2023-08-30T10:07:18;17.50;91.50
24326;DHT22;12448;45.532;5.290;2023-08-30T10:09:45;17.50;91.80
24326;DHT22;12448;45.532;5.290;2023-08-30T10:12:12;17.60;91.80
24326;DHT22;12448;45.532;5.290;2023-08-30T10:14:37;17.70;91.60
24326;DHT22;12448;45.532;5.290;2023-08-30T10:17:05;17.80;91.30
24326;DHT22;12448;45.532;5.290;2023-08-30T10:19:34;18.00;91.20
24326;DHT22;12448;45.532;5.290;2023-08-30T10:22:03;18.10;90.80
24326;DHT22;12448;45.532;5.290;2023-08-30T10:24:35;18.10;90.60
24326;DHT22;12448;45.532;5.290;2023-08-30T10:27:04;18.10;90.40
24326;DHT22;12448;45.532;5.290;2023-08-30T10:29:34;18.20;90.10
24326;DHT22;12448;45.532;5.290;2023-08-30T10:32:04;18.10;89.90
24326;DHT22;12448;45.532;5.290;2023-08-30T10:34:33;18.00;89.80
24326;DHT22;12448;45.532;5.290;2023-08-30T10:37:00;18.00;90.00
24326;DHT22;12448;45.532;5.290;2023-08-30T10:39:36;17.90;90.20
24326;DHT22;12448;45.532;5.290;2023-08-30T10:42:12;17.90;90.40
24326;DHT22;12448;45.532;5.290;2023-08-30T10:45:06;18.00;90.40
24326;DHT22;12448;45.532;5.290;2023-08-30T10:47:36;18.00;90.00
24326;DHT22;12448;45.532;5.290;2023-08-30T10:50:08;18.00;90.20
24326;DHT22;12448;45.532;5.290;2023-08-30T10:52:34;18.00;89.80
24326;DHT22;12448;45.532;5.290;2023-08-30T10:55:07;18.00;89.50
24326;DHT22;12448;45.532;5.290;2023-08-30T10:57:37;18.00;90.20
24326;DHT22;12448;45.532;5.290;2023-08-30T11:00:19;18.00;89.80
24326;DHT22;12448;45.532;5.290;2023-08-30T11:02:49;18.00;88.50
24326;DHT22;12448;45.532;5.290;2023-08-30T11:05:16;18.00;88.50
24326;DHT22;12448;45.532;5.290;2023-08-30T11:07:45;18.10;88.90
24326;DHT22;12448;45.532;5.290;2023-08-30T11:10:12;18.20;89.20
24326;DHT22;12448;45.532;5.290;2023-08-30T11:12:42;18.20;88.30
24326;DHT22;12448;45.532;5.290;2023-08-30T11:15:10;18.20;87.90
24326;DHT22;12448;45.532;5.290;2023-08-30T11:17:39;18.10;86.20
24326;DHT22;12448;45.532;5.290;2023-08-30T11:20:15;18.10;85.60
24326;DHT22;12448;45.532;5.290;2023-08-30T11:23:01;18.10;85.70
24326;DHT22;12448;45.532;5.290;2023-08-30T11:25:28;18.10;84.90
24326;DHT22;12448;45.532;5.290;2023-08-30T11:28:02;18.00;85.50
24326;DHT22;12448;45.532;5.290;2023-08-30T11:30:28;18.10;86.10
24326;DHT22;12448;45.532;5.290;2023-08-30T11:33:17;18.10;86.00
24326;DHT22;12448;45.532;5.290;2023-08-30T11:38:52;18.40;86.00
24326;DHT22;12448;45.532;5.290;2023-08-30T11:41:53;18.50;84.70
24326;DHT22;12448;45.532;5.290;2023-08-30T11:44:19;18.60;83.30
24326;DHT22;12448;45.532;5.290;2023-08-30T11:46:50;18.70;83.80
24326;DHT22;12448;45.532;5.290;2023-08-30T11:49:41;18.70;83.40
24326;DHT22;12448;45.532;5.290;2023-08-30T11:52:10;18.90;82.40
24326;DHT22;12448;45.532;5.290;2023-08-30T11:54:39;19.00;82.90
24326;DHT22;12448;45.532;5.290;2023-08-30T11:57:05;19.10;82.10
24326;DHT22;12448;45.532;5.290;2023-08-30T11:59:34;19.20;81.60
24326;DHT22;12448;45.532;5.290;2023-08-30T12:02:08;19.30;79.60
24326;DHT22;12448;45.532;5.290;2023-08-30T12:07:38;19.40;78.90
24326;DHT22;12448;45.532;5.290;2023-08-30T12:10:20;19.40;81.00
24326;DHT22;12448;45.532;5.290;2023-08-30T12:12:46;19.40;81.10
24326;DHT22;12448;45.532;5.290;2023-08-30T12:15:12;19.30;83.30
24326;DHT22;12448;45.532;5.290;2023-08-30T12:17:39;19.40;81.70
24326;DHT22;12448;45.532;5.290;2023-08-30T12:20:06;19.50;81.40
24326;DHT22;12448;45.532;5.290;2023-08-30T12:22:42;19.40;81.90
24326;DHT22;12448;45.532;5.290;2023-08-30T12:25:38;19.50;81.30
24326;DHT22;12448;45.532;5.290;2023-08-30T12:28:16;19.50;81.20
24326;DHT22;12448;45.532;5.290;2023-08-30T12:30:48;19.50;79.20
24326;DHT22;12448;45.532;5.290;2023-08-30T12:33:21;19.50;79.40
24326;DHT22;12448;45.532;5.290;2023-08-30T12:35:57;19.50;79.70
24326;DHT22;12448;45.532;5.290;2023-08-30T12:38:27;19.70;79.70
24326;DHT22;12448;45.532;5.290;2023-08-30T12:40:56;19.80;77.70
24326;DHT22;12448;45.532;5.290;2023-08-30T12:43:28;19.70;75.00
24326;DHT22;12448;45.532;5.290;2023-08-30T12:45:57;19.80;76.70
24326;DHT22;12448;45.532;5.290;2023-08-30T12:48:22;19.90;78.10
24326;DHT22;12448;45.532;5.290;2023-08-30T12:50:48;20.10;79.20
24326;DHT22;12448;45.532;5.290;2023-08-30T12:53:14;20.20;76.10
24326;DHT22;12448;45.532;5.290;2023-08-30T12:55:43;20.20;75.00
24326;DHT22;12448;45.532;5.290;2023-08-30T12:58:09;20.30;75.20
24326;DHT22;12448;45.532;5.290;2023-08-30T13:00:35;20.40;74.50
24326;DHT22;12448;45.532;5.290;2023-08-30T13:03:01;20.40;75.20
24326;DHT22;12448;45.532;5.290;2023-08-30T13:05:29;20.40;74.10
24326;DHT22;12448;45.532;5.290;2023-08-30T13:07:56;20.40;73.70
24326;DHT22;12448;45.532;5.290;2023-08-30T13:10:21;20.40;72.50
24326;DHT22;12448;45.532;5.290;2023-08-30T13:12:47;20.30;72.20
24326;DHT22;12448;45.532;5.290;2023-08-30T13:15:12;20.30;70.80
24326;DHT22;12448;45.532;5.290;2023-08-30T13:17:38;20.30;70.20
24326;DHT22;12448;45.532;5.290;2023-08-30T13:20:04;20.30;71.30
24326;DHT22;12448;45.532;5.290;2023-08-30T13:22:30;20.40;70.50
24326;DHT22;12448;45.532;5.290;2023-08-30T13:24:56;20.50;70.40
24326;DHT22;12448;45.532;5.290;2023-08-30T13:27:22;20.60;70.20
24326;DHT22;12448;45.532;5.290;2023-08-30T13:29:48;20.70;69.30
24326;DHT22;12448;45.532;5.290;2023-08-30T13:32:14;20.80;70.50
24326;DHT22;12448;45.532;5.290;2023-08-30T13:34:39;20.90;69.70
24326;DHT22;12448;45.532;5.290;2023-08-30T13:37:09;21.00;70.10
24326;DHT22;12448;45.532;5.290;2023-08-30T13:39:34;21.00;68.60
24326;DHT22;12448;45.532;5.290;2023-08-30T13:42:00;21.10;68.10
24326;DHT22;12448;45.532;5.290;2023-08-30T13:44:32;21.00;65.30
24326;DHT22;12448;45.532;5.290;2023-08-30T13:46:57;21.00;64.40
24326;DHT22;12448;45.532;5.290;2023-08-30T13:49:23;21.00;63.50
24326;DHT22;12448;45.532;5.290;2023-08-30T13:51:49;21.00;63.80
24326;DHT22;12448;45.532;5.290;2023-08-30T13:54:14;21.10;65.20
24326;DHT22;12448;45.532;5.290;2023-08-30T13:57:13;21.10;66.30
24326;DHT22;12448;45.532;5.290;2023-08-30T13:59:38;21.20;66.10
24326;DHT22;12448;45.532;5.290;2023-08-30T14:02:04;21.10;65.20
24326;DHT22;12448;45.532;5.290;2023-08-30T14:04:30;21.20;66.50
24326;DHT22;12448;45.532;5.290;2023-08-30T14:06:58;21.20;65.30
24326;DHT22;12448;45.532;5.290;2023-08-30T14:09:24;21.20;65.40
24326;DHT22;12448;45.532;5.290;2023-08-30T14:11:50;21.20;66.90
24326;DHT22;12448;45.532;5.290;2023-08-30T14:14:16;21.20;64.90
24326;DHT22;12448;45.532;5.290;2023-08-30T14:16:41;21.20;64.40
24326;DHT22;12448;45.532;5.290;2023-08-30T14:19:20;21.20;64.30
24326;DHT22;12448;45.532;5.290;2023-08-30T14:21:49;21.20;64.30
24326;DHT22;12448;45.532;5.290;2023-08-30T14:24:15;21.20;64.80
24326;DHT22;12448;45.532;5.290;2023-08-30T14:26:41;21.10;64.70
24326;DHT22;12448;45.532;5.290;2023-08-30T14:29:07;21.10;64.20
24326;DHT22;12448;45.532;5.290;2023-08-30T14:31:32;21.00;64.50
24326;DHT22;12448;45.532;5.290;2023-08-30T14:33:58;21.00;64.10
24326;DHT22;12448;45.532;5.290;2023-08-30T14:36:24;21.10;64.30
24326;DHT22;12448;45.532;5.290;2023-08-30T14:38:49;21.10;62.50
24326;DHT22;12448;45.532;5.290;2023-08-30T14:41:15;21.20;63.10
24326;DHT22;12448;45.532;5.290;2023-08-30T14:43:43;21.20;64.00
24326;DHT22;12448;45.532;5.290;2023-08-30T14:46:08;21.20;64.70
24326;DHT22;12448;45.532;5.290;2023-08-30T14:48:34;21.20;64.30
24326;DHT22;12448;45.532;5.290;2023-08-30T14:51:01;21.20;63.80
24326;DHT22;12448;45.532;5.290;2023-08-30T14:53:27;21.30;63.80
24326;DHT22;12448;45.532;5.290;2023-08-30T14:55:53;21.40;64.30
24326;DHT22;12448;45.532;5.290;2023-08-30T14:58:20;21.30;65.00
24326;DHT22;12448;45.532;5.290;2023-08-30T15:00:49;21.30;63.80
24326;DHT22;12448;45.532;5.290;2023-08-30T15:03:18;21.30;62.30
24326;DHT22;12448;45.532;5.290;2023-08-30T15:05:45;21.20;63.70
24326;DHT22;12448;45.532;5.290;2023-08-30T15:08:17;21.20;63.90
24326;DHT22;12448;45.532;5.290;2023-08-30T15:10:43;21.10;64.50
24326;DHT22;12448;45.532;5.290;2023-08-30T15:13:09;21.10;64.20
24326;DHT22;12448;45.532;5.290;2023-08-30T15:15:34;21.20;64.10
24326;DHT22;12448;45.532;5.290;2023-08-30T15:18:00;21.10;64.00
24326;DHT22;12448;45.532;5.290;2023-08-30T15:20:26;20.90;63.60
24326;DHT22;12448;45.532;5.290;2023-08-30T15:22:52;20.90;64.40
24326;DHT22;12448;45.532;5.290;2023-08-30T15:25:18;20.80;63.10
24326;DHT22;12448;45.532;5.290;2023-08-30T15:27:44;20.90;63.50
24326;DHT22;12448;45.532;5.290;2023-08-30T15:30:10;21.00;64.00
24326;DHT22;12448;45.532;5.290;2023-08-30T15:32:37;21.10;64.00
24326;DHT22;12448;45.532;5.290;2023-08-30T15:35:03;21.10;62.90
24326;DHT22;12448;45.532;5.290;2023-08-30T15:37:29;21.10;63.10
24326;DHT22;12448;45.532;5.290;2023-08-30T15:40:00;21.10;63.50
24326;DHT22;12448;45.532;5.290;2023-08-30T15:42:30;21.20;62.50
24326;DHT22;12448;45.532;5.290;2023-08-30T15:44:56;21.20;62.90
24326;DHT22;12448;45.532;5.290;2023-08-30T15:47:39;21.20;63.10
24326;DHT22;12448;45.532;5.290;2023-08-30T15:50:05;21.20;62.50
24326;DHT22;12448;45.532;5.290;2023-08-30T15:52:31;21.30;62.80